Aviation Digital Data Service (ADDS)

Output produced by METARs form (0413 UTC 24 April 2014)
found at http://www.aviationweather.gov/adds/metars/
 
SEGU 240400Z 18005KT 9999 -RADZ FEW013 BKN020 OVC080 24/22 Q1012 RMK A2989 RERA NOSIG
SEGU 232240Z 2400/2424 22004KT 9999 BKN020 BKN100 
     FM240600 22005KT 9999 FEW010 BKN020 BKN080 
     TEMPO 2408/2411 8000 RA 
     FM241200 20005KT 9999 SCT023 BKN100 
     FM241800 06006KT 9999 SCT030 SCT120 TX32/2420Z TN24/2410Z
       
SEMT 240400Z 10003KT 9999 BKN100 26/23 Q1012
SEMT 232240Z 2400/2424 20006KT 9999 SCT023 
     FM240500 16005KT 9999 OVC020 
     FM241600 30008KT 9999 SCT023 TX32/2419Z TN24/2410Z